createdAt,value
2019-06-19T17:31:11.537Z,95134.00
2019-06-19T17:33:43.753Z,95132.00
2019-06-19T17:36:19.213Z,95121.00
2019-06-19T17:38:52.073Z,95119.00
2019-06-19T17:41:23.942Z,95124.00
2019-06-19T17:43:56.105Z,95124.00
2019-06-19T17:46:27.981Z,95122.00
2019-06-19T17:49:05.664Z,95131.00
2019-06-19T17:51:37.902Z,95132.00
2019-06-19T17:54:10.407Z,95143.00
2019-06-19T17:56:42.640Z,95145.00
2019-06-19T17:59:14.783Z,95145.00
2019-06-19T18:01:48.172Z,95150.00
2019-06-19T18:04:20.295Z,95150.00
2019-06-19T18:06:52.889Z,95146.00
2019-06-19T18:09:37.628Z,95148.00
2019-06-19T18:11:58.593Z,95145.00
2019-06-19T18:14:30.681Z,95147.00
2019-06-19T18:17:02.650Z,95145.00
2019-06-19T18:19:34.841Z,95141.00
2019-06-19T18:22:07.003Z,95145.00
2019-06-19T18:24:39.166Z,95155.00
2019-06-19T18:27:11.649Z,95154.00
2019-06-19T18:29:43.528Z,95151.00
2019-06-19T18:32:16.023Z,95153.00
2019-06-19T18:34:49.773Z,95150.00
2019-06-19T18:37:21.475Z,95151.00
2019-06-19T18:39:55.513Z,95158.00
2019-06-19T18:42:28.053Z,95146.00
2019-06-19T18:45:01.562Z,95154.00
2019-06-19T18:47:35.684Z,95161.00
2019-06-19T18:50:08.235Z,95159.00
2019-06-19T18:52:41.081Z,95160.00
2019-06-19T18:55:13.540Z,95159.00
2019-06-19T18:57:46.804Z,95165.00
2019-06-19T19:00:21.461Z,95167.00
2019-06-19T19:02:53.970Z,95167.00
2019-06-19T19:05:25.798Z,95165.00
2019-06-19T19:07:58.827Z,95176.00
2019-06-19T19:10:30.981Z,95162.00
2019-06-19T19:13:05.046Z,95167.00
2019-06-19T19:15:37.210Z,95167.00
2019-06-19T19:18:09.425Z,95164.00
2019-06-19T19:20:42.110Z,95167.00
2019-06-19T19:23:14.306Z,95172.00
2019-06-19T19:25:46.204Z,95173.00
2019-06-19T19:28:18.418Z,95177.00
2019-06-19T19:30:50.254Z,95180.00
2019-06-19T19:36:25.902Z,95186.00
2019-06-19T19:38:51.863Z,95191.00
2019-06-19T19:41:33.315Z,95189.00
2019-06-19T19:43:59.679Z,95191.00
2019-06-19T19:46:32.020Z,95191.00
2019-06-19T19:49:15.536Z,95196.00
2019-06-19T19:51:48.171Z,95204.00
2019-06-19T19:54:20.804Z,95202.00
2019-06-19T19:56:52.741Z,95211.00
2019-06-19T19:59:25.853Z,95207.00
2019-06-19T20:01:58.857Z,95206.00
2019-06-19T20:04:31.052Z,95203.00
2019-06-19T20:07:03.309Z,95209.00
2019-06-19T20:09:35.233Z,95206.00
2019-06-19T20:12:07.160Z,95205.00
2019-06-19T20:14:39.605Z,95212.00
2019-06-19T20:17:12.664Z,95201.00
2019-06-19T20:19:44.742Z,95214.00
2019-06-19T20:22:16.611Z,95217.00
2019-06-19T20:24:48.823Z,95228.00
2019-06-19T20:27:20.723Z,95216.00
2019-06-19T20:29:52.577Z,95216.00
2019-06-19T20:32:25.192Z,95213.00
2019-06-19T20:34:57.979Z,95215.00
2019-06-19T20:37:30.712Z,95220.00
2019-06-19T20:40:02.609Z,95223.00
2019-06-19T20:42:34.484Z,95229.00
2019-06-19T20:45:06.924Z,95227.00
2019-06-19T20:47:38.832Z,95231.00
2019-06-19T20:50:11.364Z,95235.00
2019-06-19T20:52:55.289Z,95234.00
2019-06-19T20:55:17.677Z,95232.00
2019-06-19T20:57:49.558Z,95231.00
2019-06-19T21:00:22.095Z,95234.00
2019-06-19T21:02:54.349Z,95225.00
2019-06-19T21:05:26.177Z,95232.00
2019-06-19T21:07:58.388Z,95233.00
2019-06-19T21:10:30.913Z,95226.00
2019-06-19T21:13:02.803Z,95230.00
2019-06-19T21:15:43.818Z,95228.00
2019-06-19T21:18:08.919Z,95230.00
2019-06-19T21:20:41.170Z,95226.00
2019-06-19T21:23:13.338Z,95238.00
2019-06-19T21:25:45.921Z,95234.00
2019-06-19T21:28:18.803Z,95234.00
2019-06-19T21:30:50.958Z,95238.00
2019-06-19T21:33:23.201Z,95240.00
2019-06-19T21:35:55.603Z,95232.00
2019-06-19T21:38:28.341Z,95234.00
2019-06-19T21:41:00.248Z,95237.00
2019-06-19T21:43:32.720Z,95238.00
2019-06-19T21:46:04.890Z,95241.00
2019-06-19T21:48:36.883Z,95238.00
2019-06-19T21:51:08.723Z,95238.00
2019-06-19T21:53:40.610Z,95236.00
2019-06-19T21:56:12.799Z,95243.00
2019-06-19T21:58:46.164Z,95241.00
2019-06-19T22:01:20.239Z,95239.00
2019-06-19T22:03:52.610Z,95235.00
2019-06-19T22:06:24.927Z,95242.00
2019-06-19T22:08:57.073Z,95233.00
2019-06-19T22:11:29.203Z,95237.00
2019-06-19T22:14:01.509Z,95235.00
2019-06-19T22:16:34.369Z,95237.00
2019-06-19T22:19:06.805Z,95242.00
2019-06-19T22:21:38.633Z,95241.00
2019-06-19T22:24:11.308Z,95241.00
2019-06-19T22:26:43.637Z,95237.00
2019-06-19T22:29:15.804Z,95245.00
2019-06-19T22:31:47.929Z,95229.00
2019-06-19T22:34:19.840Z,95221.00
2019-06-19T22:36:52.613Z,95213.00
2019-06-19T22:39:25.215Z,95211.00
2019-06-19T22:42:11.009Z,95211.00
2019-06-19T22:44:31.615Z,95220.00
2019-06-19T22:47:03.641Z,95231.00
2019-06-19T22:49:38.095Z,95229.00
2019-06-19T22:52:09.944Z,95233.00
2019-06-19T22:54:41.972Z,95253.00
2019-06-19T22:57:15.136Z,95238.00
2019-06-19T22:59:46.966Z,95251.00
2019-06-19T23:02:27.997Z,95248.00
2019-06-19T23:05:20.722Z,95241.00
2019-06-19T23:07:52.489Z,95247.00
2019-06-19T23:10:24.987Z,95252.00
2019-06-19T23:12:57.244Z,95259.00
2019-06-19T23:15:29.456Z,95280.00
2019-06-19T23:18:04.487Z,95281.00
2019-06-19T23:20:37.377Z,95289.00
2019-06-19T23:23:10.309Z,95294.00
2019-06-19T23:25:47.639Z,95301.00
2019-06-19T23:28:20.284Z,95308.00
2019-06-19T23:30:52.252Z,95313.00
2019-06-19T23:33:27.910Z,95314.00
2019-06-19T23:35:58.347Z,95322.00
2019-06-19T23:38:30.998Z,95331.00
2019-06-19T23:41:04.897Z,95342.00
2019-06-19T23:43:36.731Z,95360.00
2019-06-19T23:46:08.980Z,95390.00
2019-06-19T23:48:41.107Z,95406.00
2019-06-19T23:51:12.994Z,95434.00
2019-06-19T23:53:44.861Z,95428.00
2019-06-19T23:56:17.032Z,95449.00
2019-06-19T23:58:48.905Z,95449.00
